Terminal Aerodrome Forecast
Issued by NWS

Home | Current Version | Previous Version | Text Only | Print | Product List | Glossary On
Versions: 1 2 3 4 5 6 7 8 9 10 11 12 13 14 15 16 17
000
FTUS45 KREV 221144
TAFMMH
TAF
KMMH 221144Z 2212/2312 15008KT 1/2SM SN OVC005 WS020/24045KT
     FM221500 24014G25KT 1/4SM +SN OVC005 WS020/24045KT
     FM222100 24020G35KT 3SM -SN SCT005 OVC015 WS020/24045KT
     FM230300 26015G25KT 1/4SM +SN OVC005=

USA.gov is the U.S. government's official web portal to all federal, state and local government web resources and services.